Terminal Aerodrome Forecast
Issued by NWS Boston, MA

Current Version | Previous Version | Text Only | Print | Product List | Glossary On
Versions: 1 2 3 4 5 6 7 8 9 10 11 12 13 14 15 16 17 18 19 20 21 22
000
FTUS41 KBOX 300547
TAFBOS
TAF
KBOS 300547Z 3006/3112 08004KT 2SM BR OVC003
     FM300900 VRB03KT 2SM SHRA BR OVC003
     FM301640 17005KT 3SM -SHRA BR OVC008
     FM301800 18006KT P6SM VCSH OVC010
     FM302000 20009KT P6SM OVC015
     FM310300 23012G21KT P6SM VCSH BKN100
     FM310900 22007KT P6SM BKN090=

USA.gov is the U.S. government's official web portal to all federal, state and local government web resources and services.